Delingha, China
Current Conditions -  °F | °C
As of 6:00 PM on Saturday 25 Oct 2014 (Local Time) from ZLLL Reporting Station
Clear Clear  
Wind Chill: 59°   Ceiling: Unl
Heat Index: 59°   Visibility: 6mi
Dew Point: 37°   Wind: 7mph
Humidity: 45%   Direction: 100°E
Pressure: 30.09"   Gusts: NA
Location:  37.37°N, 97.37°E
Report Text: ZLLL 251000Z 10003MPS 080V140 CAVOK 15/03 Q1019 NOSIG
Loading
Personal Weather Stations






























Interactive Weather Map
Tropical Storm Tracking
New forecast layout! Learn more

10-Day Weather Forecast

Advertisements
Track Severe Weather on mobile